Terminal Aerodrome Forecast
Issued by NWS

Home | Current Version | Previous Version | Graphics & Text | Print | Product List | Glossary On
Versions: 1 2 3 4 5 6 7 8 9 10 11 12 13
000
FTUS43 KICT 280520
TAFCNU
TAF
KCNU 280520Z 2806/2906 15006KT P6SM SCT100
     FM280900 20008KT P6SM SCT080
     FM281500 22011KT P6SM SCT060
     FM290000 25011KT P6SM VCTS BKN050CB
     FM290400 29006KT P6SM SCT100 BKN200=

USA.gov is the U.S. government's official web portal to all federal, state and local government web resources and services.